createdAt,value
2023-04-21T00:01:19.738Z,97.80
2023-04-21T00:03:48.012Z,97.90
2023-04-21T00:06:22.441Z,97.90
2023-04-21T00:08:50.903Z,97.90
2023-04-21T00:11:18.604Z,97.80
2023-04-21T00:13:45.986Z,97.80
2023-04-21T00:16:13.099Z,97.80
2023-04-21T00:18:40.236Z,97.70
2023-04-21T00:21:07.128Z,97.70
2023-04-21T00:23:34.253Z,97.70
2023-04-21T00:26:02.925Z,97.80
2023-04-21T00:28:30.373Z,97.90
2023-04-21T00:30:58.636Z,98.00
2023-04-21T00:33:26.397Z,98.00
2023-04-21T00:35:56.893Z,98.10
2023-04-21T00:38:23.996Z,98.10
2023-04-21T00:40:51.039Z,98.10
2023-04-21T00:43:18.207Z,98.20
2023-04-21T00:45:48.960Z,98.20
2023-04-21T00:48:17.680Z,98.20
2023-04-21T00:50:45.599Z,98.00
2023-04-21T00:53:14.646Z,98.00
2023-04-21T00:55:41.902Z,98.00
2023-04-21T00:58:09.282Z,98.00
2023-04-21T01:00:36.583Z,98.00
2023-04-21T01:03:06.444Z,98.00
2023-04-21T01:05:33.867Z,98.20
2023-04-21T01:08:02.875Z,97.80
2023-04-21T01:10:30.159Z,97.80
2023-04-21T01:12:57.182Z,97.70
2023-04-21T01:15:27.537Z,97.60
2023-04-21T01:17:54.655Z,97.50
2023-04-21T01:20:21.840Z,97.40
2023-04-21T01:22:51.286Z,97.50
2023-04-21T01:25:18.986Z,97.50
2023-04-21T01:27:46.117Z,97.50
2023-04-21T01:30:13.265Z,97.70
2023-04-21T01:32:40.412Z,97.40
2023-04-21T01:35:08.707Z,97.40
2023-04-21T01:37:38.736Z,97.30
2023-04-21T01:40:09.150Z,97.40
2023-04-21T01:42:39.546Z,97.40
2023-04-21T01:45:07.597Z,97.20
2023-04-21T01:47:34.798Z,97.20
2023-04-21T01:50:01.956Z,97.20
2023-04-21T01:52:28.905Z,97.10
2023-04-21T01:54:56.056Z,97.00
2023-04-21T01:57:23.097Z,97.00
2023-04-21T01:59:51.437Z,97.00
2023-04-21T02:02:18.810Z,97.10
2023-04-21T02:04:45.891Z,97.00
2023-04-21T02:07:12.808Z,97.00
2023-04-21T02:09:41.349Z,97.10
2023-04-21T02:12:08.709Z,97.20
2023-04-21T02:14:37.834Z,97.00
2023-04-21T02:17:07.509Z,96.90
2023-04-21T02:19:34.999Z,96.90
2023-04-21T02:22:02.064Z,96.90
2023-04-21T02:24:28.952Z,97.00
2023-04-21T02:26:57.842Z,97.00
2023-04-21T02:29:24.822Z,97.10
2023-04-21T02:32:02.917Z,97.00
2023-04-21T02:34:32.670Z,97.00
2023-04-21T02:36:59.923Z,97.10
2023-04-21T02:39:27.125Z,97.10
2023-04-21T02:41:54.204Z,97.10
2023-04-21T02:44:21.324Z,97.20
2023-04-21T02:46:48.342Z,97.10
2023-04-21T02:49:15.439Z,97.10
2023-04-21T02:51:42.444Z,97.10
2023-04-21T02:54:09.523Z,97.20
2023-04-21T02:56:36.557Z,97.20
2023-04-21T02:59:03.563Z,97.20
2023-04-21T03:01:30.470Z,97.20
2023-04-21T03:03:57.596Z,97.20
2023-04-21T03:06:24.587Z,97.20
2023-04-21T03:08:52.282Z,97.30
2023-04-21T03:11:19.265Z,97.30
2023-04-21T03:13:46.192Z,97.20
2023-04-21T03:16:13.606Z,97.30
2023-04-21T03:18:40.736Z,97.30
2023-04-21T03:21:07.678Z,97.30
2023-04-21T03:23:34.968Z,97.30
2023-04-21T03:26:09.348Z,97.40
2023-04-21T03:28:36.403Z,97.40
2023-04-21T03:31:03.736Z,97.40
2023-04-21T03:33:30.848Z,97.50
2023-04-21T03:35:57.787Z,97.50
2023-04-21T03:38:24.891Z,97.60
2023-04-21T03:40:51.840Z,97.60
2023-04-21T03:43:19.212Z,97.60
2023-04-21T03:45:46.516Z,97.60
2023-04-21T03:48:13.544Z,97.70
2023-04-21T03:50:40.633Z,97.70
2023-04-21T03:53:07.573Z,97.70
2023-04-21T03:55:34.604Z,97.70
2023-04-21T03:58:01.566Z,97.70
2023-04-21T04:00:28.515Z,97.70
2023-04-21T04:02:55.631Z,97.70
2023-04-21T04:05:22.730Z,97.70
2023-04-21T04:07:49.769Z,97.70
2023-04-21T04:10:16.799Z,97.70
2023-04-21T04:12:43.822Z,97.70
2023-04-21T04:15:10.919Z,97.70
2023-04-21T04:17:37.965Z,97.70
2023-04-21T04:20:08.332Z,97.80
2023-04-21T04:22:35.904Z,97.70
2023-04-21T04:25:03.666Z,97.80
2023-04-21T04:27:30.908Z,97.80
2023-04-21T04:29:57.792Z,97.90
2023-04-21T04:32:28.539Z,97.80
2023-04-21T04:34:55.912Z,97.90
2023-04-21T04:37:22.969Z,97.90
2023-04-21T04:39:53.398Z,97.90
2023-04-21T04:42:20.471Z,97.90
2023-04-21T04:44:47.593Z,97.90
2023-04-21T04:47:14.458Z,97.80
2023-04-21T04:49:41.369Z,97.90
2023-04-21T04:52:08.236Z,97.90
2023-04-21T04:54:35.253Z,97.80
2023-04-21T04:57:02.524Z,97.90
2023-04-21T04:59:30.841Z,97.90
2023-04-21T05:01:58.036Z,98.00
2023-04-21T05:04:25.583Z,97.90
2023-04-21T05:06:52.785Z,98.00
2023-04-21T05:09:19.680Z,98.00
2023-04-21T05:11:46.617Z,98.10
2023-04-21T05:14:13.632Z,98.10
2023-04-21T05:16:40.656Z,98.10
2023-04-21T05:19:07.564Z,98.00
2023-04-21T05:21:34.448Z,98.00
2023-04-21T05:24:01.533Z,97.90
2023-04-21T05:26:29.411Z,97.90
2023-04-21T05:28:57.539Z,98.00
2023-04-21T05:31:25.095Z,98.00
2023-04-21T05:33:52.224Z,98.00
2023-04-21T05:36:20.433Z,98.00
2023-04-21T05:38:47.646Z,97.80
2023-04-21T05:41:14.585Z,97.80
2023-04-21T05:43:41.580Z,97.90
2023-04-21T05:46:11.462Z,97.80
2023-04-21T05:48:38.645Z,97.80
2023-04-21T05:51:13.854Z,97.80
2023-04-21T05:53:41.436Z,97.80
2023-04-21T05:56:12.470Z,97.60
2023-04-21T05:58:39.757Z,97.50
2023-04-21T06:01:06.697Z,97.40
2023-04-21T06:03:34.595Z,97.50
2023-04-21T06:06:04.115Z,97.50
2023-04-21T06:08:31.288Z,97.40
2023-04-21T06:10:58.439Z,97.30
2023-04-21T06:13:27.493Z,97.20
2023-04-21T06:15:55.082Z,97.10
2023-04-21T06:18:22.450Z,97.00
2023-04-21T06:20:56.032Z,96.90
2023-04-21T06:23:22.966Z,97.00
2023-04-21T06:26:05.270Z,97.00
2023-04-21T06:28:33.455Z,97.00
2023-04-21T06:31:01.664Z,96.80
2023-04-21T06:33:29.827Z,96.60
2023-04-21T06:35:56.819Z,96.60
2023-04-21T06:38:23.981Z,96.50
2023-04-21T06:40:51.254Z,96.50
2023-04-21T06:43:18.171Z,96.40
2023-04-21T06:45:45.055Z,96.30
2023-04-21T06:48:12.048Z,96.20
2023-04-21T06:50:38.912Z,95.90
2023-04-21T06:53:05.905Z,95.80
2023-04-21T06:55:32.906Z,95.70
2023-04-21T06:57:59.952Z,95.70
2023-04-21T07:00:26.972Z,95.80
2023-04-21T07:02:54.061Z,95.70
2023-04-21T07:05:20.959Z,95.70
2023-04-21T07:07:47.896Z,95.80
2023-04-21T07:10:19.300Z,95.70
2023-04-21T07:12:46.609Z,95.70
2023-04-21T07:15:13.700Z,95.80
2023-04-21T07:17:40.665Z,95.80
2023-04-21T07:20:08.126Z,95.60
2023-04-21T07:22:36.163Z,95.50
2023-04-21T07:25:07.133Z,95.30
2023-04-21T07:27:36.281Z,95.40
2023-04-21T07:30:07.111Z,95.10
2023-04-21T07:32:35.197Z,94.90
2023-04-21T07:35:03.040Z,94.90
2023-04-21T07:37:30.088Z,94.90
2023-04-21T07:39:57.084Z,94.80
2023-04-21T07:42:24.523Z,94.20
2023-04-21T07:44:51.452Z,93.90
2023-04-21T07:47:18.578Z,93.80
2023-04-21T07:49:45.644Z,94.00
2023-04-21T07:52:12.659Z,94.20
2023-04-21T07:54:39.600Z,94.40
2023-04-21T07:57:07.297Z,94.30
2023-04-21T07:59:34.228Z,93.10
2023-04-21T08:02:02.090Z,93.40
2023-04-21T08:04:29.415Z,93.00
2023-04-21T08:06:56.532Z,92.70
2023-04-21T08:09:23.575Z,92.70
2023-04-21T08:11:50.577Z,92.40
2023-04-21T08:14:17.781Z,92.50
2023-04-21T08:16:45.092Z,92.60
2023-04-21T08:19:12.185Z,92.50
2023-04-21T08:21:39.799Z,92.30
2023-04-21T08:24:07.105Z,92.10
2023-04-21T08:26:34.916Z,92.10
2023-04-21T08:29:04.387Z,91.90
2023-04-21T08:31:31.780Z,91.50
2023-04-21T08:34:02.798Z,91.40
2023-04-21T08:36:30.707Z,91.70
2023-04-21T08:38:58.633Z,91.50
2023-04-21T08:41:26.300Z,91.50
2023-04-21T08:43:53.241Z,91.10
2023-04-21T08:46:20.890Z,90.60
2023-04-21T08:48:48.059Z,90.70
2023-04-21T08:51:21.684Z,90.40
2023-04-21T08:53:48.709Z,90.00
2023-04-21T08:56:15.660Z,90.10
2023-04-21T08:58:42.659Z,90.30
2023-04-21T09:01:09.614Z,90.90
2023-04-21T09:03:36.756Z,91.00
2023-04-21T09:06:06.180Z,90.60
2023-04-21T09:08:35.020Z,90.30
2023-04-21T09:11:01.998Z,89.40
2023-04-21T09:13:36.811Z,89.10
2023-04-21T09:16:08.539Z,88.40
2023-04-21T09:18:40.403Z,88.60
2023-04-21T09:21:12.589Z,88.20
2023-04-21T09:23:52.524Z,85.60
2023-04-21T09:26:23.163Z,85.20
2023-04-21T09:28:52.038Z,84.40
2023-04-21T09:31:21.227Z,83.50
2023-04-21T09:34:00.241Z,82.40
2023-04-21T09:36:29.811Z,79.10
2023-04-21T09:41:34.609Z,81.20
2023-04-21T09:44:01.760Z,81.20
2023-04-21T09:46:33.491Z,81.10
2023-04-21T09:49:04.594Z,79.30
2023-04-21T09:51:56.296Z,79.70
2023-04-21T09:56:56.449Z,81.50
2023-04-21T09:59:29.984Z,81.60
2023-04-21T10:01:59.896Z,82.10
2023-04-21T10:04:29.097Z,83.20
2023-04-21T10:06:56.715Z,83.80
2023-04-21T10:09:27.445Z,82.90
2023-04-21T10:11:55.801Z,83.20
2023-04-21T10:14:22.929Z,83.80
2023-04-21T10:16:57.514Z,84.40
2023-04-21T10:19:26.681Z,83.30
2023-04-21T10:21:59.919Z,82.80
2023-04-21T10:24:31.035Z,82.80
2023-04-21T10:27:02.224Z,81.10
2023-04-21T10:29:40.091Z,80.10
2023-04-21T10:32:11.395Z,81.10
2023-04-21T10:34:39.119Z,80.60
2023-04-21T10:37:06.157Z,79.40
2023-04-21T10:39:42.416Z,77.80
2023-04-21T10:42:29.524Z,75.90
2023-04-21T10:44:59.685Z,72.40
2023-04-21T10:47:44.122Z,73.10
2023-04-21T10:50:22.120Z,72.60
2023-04-21T10:52:55.477Z,73.40
2023-04-21T10:55:25.487Z,72.50
2023-04-21T10:57:52.488Z,71.60
2023-04-21T11:00:23.025Z,72.80
2023-04-21T11:03:02.862Z,74.80
2023-04-21T11:05:38.834Z,76.60
2023-04-21T11:08:14.701Z,77.80
2023-04-21T11:10:55.945Z,78.80
2023-04-21T11:13:29.311Z,76.80
2023-04-21T11:16:01.431Z,76.80
2023-04-21T11:18:38.634Z,77.10
2023-04-21T11:21:18.384Z,76.60
2023-04-21T11:23:51.461Z,76.30
2023-04-21T11:26:20.279Z,74.00
2023-04-21T11:28:49.535Z,73.80
2023-04-21T11:31:16.676Z,72.60
2023-04-21T11:33:43.694Z,74.30
2023-04-21T11:36:10.660Z,74.70
2023-04-21T11:38:40.031Z,74.60
2023-04-21T11:41:07.988Z,73.40
2023-04-21T11:43:35.030Z,72.40
2023-04-21T11:46:27.389Z,71.10
2023-04-21T11:49:05.826Z,69.90
2023-04-21T11:51:37.782Z,68.80
2023-04-21T11:54:06.982Z,67.90
2023-04-21T11:56:38.385Z,67.50
2023-04-21T11:59:25.806Z,66.30
2023-04-21T12:01:54.524Z,64.70
2023-04-21T12:04:23.329Z,64.30
2023-04-21T12:07:03.338Z,65.00
2023-04-21T12:09:30.809Z,66.00
2023-04-21T12:11:59.040Z,66.30
2023-04-21T12:14:29.196Z,66.70
2023-04-21T12:16:58.120Z,65.40
2023-04-21T12:19:26.550Z,65.30
2023-04-21T12:21:56.699Z,65.10
2023-04-21T12:24:23.784Z,64.90
2023-04-21T12:26:50.956Z,65.60
2023-04-21T12:29:18.096Z,65.40
2023-04-21T12:31:45.080Z,66.20
2023-04-21T12:34:12.125Z,66.80
2023-04-21T12:36:39.105Z,66.60
2023-04-21T12:39:06.387Z,66.60
2023-04-21T12:41:34.711Z,67.40
2023-04-21T12:44:01.711Z,67.60
2023-04-21T12:46:28.865Z,67.80
2023-04-21T12:48:56.191Z,68.10
2023-04-21T12:51:23.175Z,69.80
2023-04-21T12:53:50.630Z,73.30
2023-04-21T12:56:18.062Z,75.60
2023-04-21T12:58:45.367Z,78.30
2023-04-21T13:01:14.816Z,79.70
2023-04-21T13:03:42.728Z,81.50
2023-04-21T13:06:10.480Z,83.70
2023-04-21T13:08:37.799Z,85.20
2023-04-21T13:11:05.313Z,86.00
2023-04-21T13:13:32.308Z,86.60
2023-04-21T13:15:59.270Z,86.20
2023-04-21T13:18:26.202Z,85.30
2023-04-21T13:20:53.118Z,86.00
2023-04-21T13:23:20.097Z,86.90
2023-04-21T13:25:47.116Z,87.90
2023-04-21T13:28:14.449Z,87.50
2023-04-21T13:30:41.583Z,86.40
2023-04-21T13:33:08.715Z,85.30
2023-04-21T13:35:35.795Z,85.40
2023-04-21T13:38:02.740Z,86.70
2023-04-21T13:40:30.038Z,88.60
2023-04-21T13:42:58.824Z,89.50
2023-04-21T13:45:26.534Z,89.90
2023-04-21T13:47:54.137Z,90.20
2023-04-21T13:50:21.866Z,90.10
2023-04-21T13:52:49.082Z,89.50
2023-04-21T13:55:15.980Z,89.90
2023-04-21T13:57:43.084Z,90.10
2023-04-21T14:00:13.429Z,89.40
2023-04-21T14:02:42.039Z,88.80
2023-04-21T14:05:09.572Z,85.30
2023-04-21T14:07:37.653Z,85.20
2023-04-21T14:10:04.791Z,85.40
2023-04-21T14:12:31.812Z,85.50
2023-04-21T14:14:58.631Z,86.20
2023-04-21T14:17:25.669Z,85.80
2023-04-21T14:19:54.464Z,82.50
2023-04-21T14:22:22.242Z,80.70
2023-04-21T14:24:49.330Z,80.30
2023-04-21T14:27:16.427Z,80.20
2023-04-21T14:29:43.375Z,80.40
2023-04-21T14:32:10.348Z,81.00
2023-04-21T14:34:37.310Z,78.60
2023-04-21T14:37:04.379Z,77.50
2023-04-21T14:39:32.646Z,77.00
2023-04-21T14:41:59.773Z,69.00
2023-04-21T14:44:26.645Z,70.30
2023-04-21T14:47:08.472Z,70.80
2023-04-21T14:49:37.840Z,73.40
2023-04-21T14:52:04.939Z,75.20
2023-04-21T14:54:31.964Z,71.50
2023-04-21T14:57:17.694Z,72.30
2023-04-21T14:59:46.875Z,74.20
2023-04-21T15:02:14.359Z,73.70
2023-04-21T15:04:41.764Z,73.40
2023-04-21T15:07:08.823Z,74.30
2023-04-21T15:09:36.682Z,74.90
2023-04-21T15:12:04.007Z,72.70
2023-04-21T15:14:31.109Z,72.80
2023-04-21T15:16:58.188Z,71.40
2023-04-21T15:19:25.734Z,71.30
2023-04-21T15:21:52.891Z,72.70
2023-04-21T15:24:19.931Z,72.50
2023-04-21T15:26:46.868Z,72.70
2023-04-21T15:29:13.924Z,73.20
2023-04-21T15:31:41.145Z,73.40
2023-04-21T15:34:08.265Z,74.10
2023-04-21T15:36:35.726Z,74.30
2023-04-21T15:39:02.723Z,73.50
2023-04-21T15:41:31.506Z,73.80
2023-04-21T15:43:59.950Z,73.60
2023-04-21T15:46:27.089Z,73.80
2023-04-21T15:48:54.300Z,73.90
2023-04-21T15:51:21.236Z,73.50
2023-04-21T15:53:49.381Z,72.00
2023-04-21T15:56:16.804Z,72.30
2023-04-21T15:58:43.899Z,72.50
2023-04-21T16:01:11.133Z,72.80
2023-04-21T16:03:40.280Z,72.80
2023-04-21T16:06:07.844Z,73.40
2023-04-21T16:08:34.985Z,73.50
2023-04-21T16:11:02.134Z,73.50
2023-04-21T16:13:29.534Z,73.60
2023-04-21T16:15:56.721Z,73.10
2023-04-21T16:18:23.901Z,72.20
2023-04-21T16:20:51.335Z,71.40
2023-04-21T16:23:18.672Z,71.30
2023-04-21T16:25:45.665Z,70.10
2023-04-21T16:28:12.727Z,69.60
2023-04-21T16:30:43.476Z,70.10
2023-04-21T16:33:11.375Z,70.40
2023-04-21T16:35:39.345Z,71.10
2023-04-21T16:38:07.022Z,71.70
2023-04-21T16:40:34.234Z,72.30
2023-04-21T16:43:01.512Z,73.40
2023-04-21T16:45:29.121Z,74.70
2023-04-21T16:47:56.794Z,75.80
2023-04-21T16:50:23.923Z,76.20
2023-04-21T16:52:51.175Z,76.10
2023-04-21T16:55:18.569Z,76.30
2023-04-21T16:57:45.717Z,76.40
2023-04-21T17:00:13.771Z,76.70
2023-04-21T17:02:40.961Z,76.90
2023-04-21T17:05:08.514Z,77.10
2023-04-21T17:07:35.544Z,77.30
2023-04-21T17:10:02.468Z,77.70
2023-04-21T17:12:29.434Z,78.00
2023-04-21T17:14:56.363Z,78.40
2023-04-21T17:17:23.877Z,79.20
2023-04-21T17:19:52.325Z,79.80
2023-04-21T17:22:19.295Z,80.00
2023-04-21T17:24:53.092Z,80.00
2023-04-21T17:27:21.471Z,79.90
2023-04-21T17:29:48.522Z,79.70
2023-04-21T17:32:15.549Z,79.90
2023-04-21T17:34:42.754Z,80.10
2023-04-21T17:37:09.786Z,80.40
2023-04-21T17:39:37.296Z,80.80
2023-04-21T17:42:05.070Z,81.20
2023-04-21T17:44:31.957Z,82.10
2023-04-21T17:46:58.926Z,81.50
2023-04-21T17:49:26.548Z,81.70
2023-04-21T17:51:53.460Z,82.10
2023-04-21T17:54:20.372Z,82.20
2023-04-21T17:56:47.521Z,82.10
2023-04-21T17:59:14.425Z,82.40
2023-04-21T18:01:41.477Z,82.80
2023-04-21T18:04:08.724Z,83.20
2023-04-21T18:06:36.378Z,83.50
2023-04-21T18:09:07.260Z,83.50
2023-04-21T18:11:34.324Z,83.90
2023-04-21T18:14:01.353Z,84.20
2023-04-21T18:16:28.441Z,84.50
2023-04-21T18:18:55.945Z,85.60
2023-04-21T18:21:22.876Z,85.00
2023-04-21T18:23:49.756Z,85.40
2023-04-21T18:26:16.737Z,86.00
2023-04-21T18:28:43.569Z,86.40
2023-04-21T18:31:10.561Z,86.70
2023-04-21T18:33:37.541Z,87.20
2023-04-21T18:36:05.078Z,87.50
2023-04-21T18:38:31.922Z,87.60
2023-04-21T18:40:58.895Z,87.70
2023-04-21T18:43:25.991Z,87.60
2023-04-21T18:45:52.952Z,87.40
2023-04-21T18:48:19.928Z,87.40
2023-04-21T18:50:46.945Z,87.60
2023-04-21T18:53:13.906Z,87.90
2023-04-21T18:55:40.961Z,88.30
2023-04-21T18:58:07.785Z,88.50
2023-04-21T19:00:37.562Z,88.80
2023-04-21T19:03:08.908Z,88.80
2023-04-21T19:05:37.742Z,88.90
2023-04-21T19:08:05.297Z,89.10
2023-04-21T19:10:37.521Z,89.40
2023-04-21T19:13:04.812Z,89.70
2023-04-21T19:15:31.955Z,90.00
2023-04-21T19:17:59.080Z,90.10
2023-04-21T19:20:26.088Z,90.20
2023-04-21T19:22:53.057Z,90.40
2023-04-21T19:25:20.105Z,90.40
2023-04-21T19:27:47.887Z,90.50
2023-04-21T19:30:14.861Z,90.60
2023-04-21T19:32:41.901Z,90.60
2023-04-21T19:35:09.337Z,90.70
2023-04-21T19:37:36.936Z,90.60
2023-04-21T19:40:05.577Z,90.60
2023-04-21T19:42:32.611Z,90.60
2023-04-21T19:44:59.484Z,90.80
2023-04-21T19:47:27.782Z,91.00
2023-04-21T19:49:54.726Z,91.00
2023-04-21T19:52:21.654Z,91.10
2023-04-21T19:54:48.564Z,91.20
2023-04-21T19:57:16.038Z,91.40
2023-04-21T19:59:42.966Z,91.50
2023-04-21T20:02:10.093Z,91.60
2023-04-21T20:04:37.563Z,91.60
2023-04-21T20:07:04.802Z,91.60
2023-04-21T20:09:31.756Z,91.70
2023-04-21T20:11:58.609Z,91.80
2023-04-21T20:14:25.735Z,91.90
2023-04-21T20:16:52.717Z,91.90
2023-04-21T20:19:22.905Z,91.90
2023-04-21T20:21:50.171Z,91.90
2023-04-21T20:24:17.499Z,92.00
2023-04-21T20:26:45.286Z,92.00
2023-04-21T20:29:12.204Z,92.00
2023-04-21T20:31:39.313Z,92.00
2023-04-21T20:34:06.275Z,92.00
2023-04-21T20:36:33.566Z,92.00
2023-04-21T20:39:01.176Z,92.00
2023-04-21T20:41:28.354Z,92.00
2023-04-21T20:43:56.285Z,92.00
2023-04-21T20:46:23.865Z,92.10
2023-04-21T20:48:51.455Z,92.10
2023-04-21T20:51:18.469Z,92.20
2023-04-21T20:53:45.413Z,92.20
2023-04-21T20:56:12.376Z,92.30
2023-04-21T20:58:39.305Z,92.30
2023-04-21T21:01:06.353Z,92.70
2023-04-21T21:03:33.446Z,92.40
2023-04-21T21:06:00.613Z,92.40
2023-04-21T21:08:28.141Z,92.40
2023-04-21T21:10:55.046Z,92.50
2023-04-21T21:13:21.947Z,92.50
2023-04-21T21:15:49.024Z,92.60
2023-04-21T21:18:15.935Z,92.50
2023-04-21T21:20:43.100Z,92.50
2023-04-21T21:23:10.054Z,92.50
2023-04-21T21:25:37.025Z,92.60
2023-04-21T21:28:03.984Z,92.70
2023-04-21T21:30:30.969Z,92.80
2023-04-21T21:32:57.902Z,92.90
2023-04-21T21:35:24.986Z,93.10
2023-04-21T21:37:52.842Z,93.10
2023-04-21T21:40:19.851Z,93.20
2023-04-21T21:42:46.816Z,93.30
2023-04-21T21:45:13.805Z,93.30
2023-04-21T21:47:43.854Z,93.30
2023-04-21T21:50:12.678Z,93.30
2023-04-21T21:52:39.597Z,93.40
2023-04-21T21:55:07.976Z,93.40
2023-04-21T21:57:35.000Z,93.30
2023-04-21T22:00:02.261Z,93.30
2023-04-21T22:02:32.066Z,93.30
2023-04-21T22:04:59.712Z,93.40
2023-04-21T22:07:26.825Z,93.40
2023-04-21T22:09:53.773Z,93.50
2023-04-21T22:12:20.790Z,93.50
2023-04-21T22:14:47.710Z,93.60
2023-04-21T22:17:15.256Z,93.70
2023-04-21T22:19:42.149Z,93.70
2023-04-21T22:22:09.321Z,93.80
2023-04-21T22:24:36.216Z,93.90
2023-04-21T22:27:03.403Z,93.90
2023-04-21T22:29:31.106Z,93.90
2023-04-21T22:31:58.398Z,93.80
2023-04-21T22:34:25.358Z,93.90
2023-04-21T22:36:53.411Z,94.00
2023-04-21T22:39:20.712Z,94.00
2023-04-21T22:41:47.623Z,94.10
2023-04-21T22:44:14.799Z,94.10
2023-04-21T22:46:42.030Z,94.20
2023-04-21T22:49:09.508Z,94.30
2023-04-21T22:51:37.069Z,94.40
2023-04-21T22:54:04.358Z,94.40
2023-04-21T22:56:31.638Z,94.40
2023-04-21T22:58:58.851Z,94.30
2023-04-21T23:01:25.787Z,94.40
2023-04-21T23:03:52.890Z,94.40
2023-04-21T23:06:19.895Z,94.40
2023-04-21T23:08:46.808Z,94.30
2023-04-21T23:11:13.927Z,94.40
2023-04-21T23:13:41.016Z,94.20
2023-04-21T23:16:07.957Z,94.10
2023-04-21T23:18:35.827Z,94.30
2023-04-21T23:21:02.949Z,94.30
2023-04-21T23:23:29.992Z,94.20
2023-04-21T23:25:56.825Z,93.90
2023-04-21T23:28:24.444Z,93.90
2023-04-21T23:30:51.527Z,94.00
2023-04-21T23:33:18.648Z,94.30
2023-04-21T23:35:45.937Z,94.50
2023-04-21T23:38:13.010Z,94.60
2023-04-21T23:40:40.000Z,94.70
2023-04-21T23:43:07.544Z,94.70
2023-04-21T23:45:34.414Z,94.70
2023-04-21T23:48:01.347Z,94.60
2023-04-21T23:50:28.430Z,94.70
2023-04-21T23:52:55.930Z,94.70
2023-04-21T23:55:22.924Z,94.70
2023-04-21T23:57:49.931Z,94.80
